Time;durP1;ratioP1;P1;durP2;ratioP2;P2;SDS_P1;SDS_P2;PMS_P1;PMS_P2;Temp;Humidity;BMP_temperature;BMP_pressure;BME280_temperature;BME280_humidity;BME280_pressure;Samples;Min_cycle;Max_cycle;Signal;HPM_P1;HPM_P2
2023/09/09 00:01:19;;;;;;;10.50;5.78;;;;;;;-143.21;68.21;71941.31;5069752;28;20201;-82
2023/09/09 00:03:45;;;;;;;10.23;5.88;;;;;;;-143.21;68.52;71947.25;5068806;28;20225;-82
2023/09/09 00:06:14;;;;;;;14.65;6.05;;;;;;;-143.21;69.47;71975.00;5069597;28;20229;-82
2023/09/09 00:08:42;;;;;;;13.93;6.50;;;;;;;-143.21;70.18;71986.91;5068036;28;20292;-82
2023/09/09 00:11:10;;;;;;;9.15;6.38;;;;;;;-143.21;70.07;71996.81;5069330;28;20204;-82
2023/09/09 00:13:37;;;;;;;10.02;6.22;;;;;;;-143.21;70.52;71980.97;5068678;28;20629;-82
2023/09/09 00:16:04;;;;;;;9.63;6.53;;;;;;;-143.21;69.89;71949.25;5069273;28;20208;-81
2023/09/09 00:18:31;;;;;;;11.57;6.22;;;;;;;-143.21;69.37;71925.44;5068861;28;20201;-81
2023/09/09 00:20:58;;;;;;;10.02;6.63;;;;;;;-143.21;69.05;71925.44;5068189;28;20205;-82
2023/09/09 00:23:26;;;;;;;10.85;6.85;;;;;;;-143.21;69.05;71925.44;5069109;28;20699;-81
2023/09/09 00:25:53;;;;;;;10.95;7.10;;;;;;;-143.21;69.24;71925.44;5068397;28;20650;-82
2023/09/09 00:28:20;;;;;;;11.68;6.85;;;;;;;-143.21;69.21;71925.44;5068424;28;20220;-82
2023/09/09 00:30:47;;;;;;;11.48;7.07;;;;;;;-143.21;69.65;71935.34;5068239;28;20209;-82
2023/09/09 00:33:17;;;;;;;9.63;6.78;;;;;;;-143.21;69.66;71935.34;5069145;28;20201;-82
2023/09/09 00:35:51;;;;;;;10.55;6.53;;;;;;;-143.21;69.84;71931.38;5068384;28;20209;-82
2023/09/09 00:38:18;;;;;;;9.63;6.60;;;;;;;-143.21;69.95;71931.38;5069499;28;20200;-82
2023/09/09 00:41:10;;;;;;;10.70;6.70;;;;;;;-143.21;69.95;71933.38;5068580;28;20284;-83
2023/09/09 00:43:37;;;;;;;10.07;6.93;;;;;;;-143.21;70.15;71935.34;5069094;28;20220;-81
2023/09/09 00:46:04;;;;;;;8.77;6.30;;;;;;;-143.21;70.34;71939.31;5068446;28;20597;-81
2023/09/09 00:48:31;;;;;;;12.00;6.85;;;;;;;-143.21;70.76;71945.28;5069100;28;20255;-81
2023/09/09 00:50:58;;;;;;;13.35;6.80;;;;;;;-143.21;70.94;71943.28;5069076;28;20583;-82
2023/09/09 00:53:26;;;;;;;13.98;7.05;;;;;;;-143.21;70.90;71951.22;5069386;28;20205;-81
2023/09/09 00:55:55;;;;;;;13.35;7.88;;;;;;;-143.21;71.21;71949.25;5068182;28;20202;-82
2023/09/09 00:58:23;;;;;;;11.25;8.10;;;;;;;-143.21;71.43;71943.28;5068709;28;20212;-81
2023/09/09 01:00:50;;;;;;;9.30;6.53;;;;;;;-143.21;71.02;71925.44;5068018;28;20213;-82
2023/09/09 01:03:17;;;;;;;12.55;6.28;;;;;;;-143.21;70.70;71913.53;5068517;28;20221;-82
2023/09/09 01:05:45;;;;;;;12.77;6.25;;;;;;;-143.21;70.46;71917.50;5068482;28;20240;-82
2023/09/09 01:08:12;;;;;;;7.53;6.32;;;;;;;-143.21;70.75;71927.44;5069590;28;20664;-82
2023/09/09 01:10:39;;;;;;;13.25;7.15;;;;;;;-143.21;70.79;71927.44;5069394;28;20232;-82
2023/09/09 01:13:07;;;;;;;9.70;6.35;;;;;;;-143.21;71.08;71939.31;5068971;28;20194;-82
2023/09/09 01:15:34;;;;;;;10.25;6.60;;;;;;;-143.21;71.52;71943.28;5068327;28;20209;-82
2023/09/09 01:18:01;;;;;;;9.27;6.10;;;;;;;-143.21;71.90;71949.25;5068446;28;20205;-83
2023/09/09 01:20:31;;;;;;;11.73;7.15;;;;;;;-143.21;71.94;71959.16;5064834;28;20205;-83
2023/09/09 01:23:00;;;;;;;8.90;6.38;;;;;;;-143.21;72.36;71963.13;5068770;28;20222;-82
2023/09/09 01:25:27;;;;;;;10.20;6.35;;;;;;;-143.21;72.60;71969.06;5069330;28;20208;-81
2023/09/09 01:27:53;;;;;;;13.25;7.00;;;;;;;-143.21;72.70;71965.09;5068374;28;20239;-82
2023/09/09 01:30:20;;;;;;;12.73;6.95;;;;;;;-143.21;72.73;71967.09;5068756;28;20228;-82
2023/09/09 01:32:47;;;;;;;10.15;6.65;;;;;;;-143.21;72.90;71969.06;5070107;28;20219;-80
2023/09/09 01:35:14;;;;;;;9.93;6.40;;;;;;;-143.21;73.02;71969.06;5072454;28;20292;-81
2023/09/09 01:37:41;;;;;;;14.25;7.00;;;;;;;-143.21;73.07;71969.06;5072425;28;20205;-82
2023/09/09 01:40:12;;;;;;;16.73;6.68;;;;;;;-143.21;73.01;71951.22;5072202;28;20208;-81
2023/09/09 01:42:40;;;;;;;9.98;6.40;;;;;;;-143.21;72.93;71945.28;5071695;28;20225;-81
2023/09/09 01:45:08;;;;;;;9.77;6.72;;;;;;;-143.21;72.86;71957.16;5072160;28;20225;-81
2023/09/09 01:47:34;;;;;;;8.73;6.60;;;;;;;-143.21;73.13;71971.06;5071413;28;20691;-80
2023/09/09 01:50:02;;;;;;;9.68;6.68;;;;;;;-143.21;73.11;71975.00;5071744;28;20593;-80
2023/09/09 01:52:28;;;;;;;8.90;6.53;;;;;;;-143.21;73.25;71971.06;5072554;28;20573;-80
2023/09/09 01:54:55;;;;;;;10.40;6.15;;;;;;;-143.21;73.18;71978.97;5071871;28;20201;-80
2023/09/09 01:57:26;;;;;;;9.55;6.85;;;;;;;-143.21;73.38;71971.06;5072135;28;20298;-80
2023/09/09 01:59:54;;;;;;;11.30;6.80;;;;;;;-143.21;73.70;71982.94;5071680;28;20299;-80
2023/09/09 02:02:20;;;;;;;15.63;6.93;;;;;;;-143.21;73.83;71998.81;5071581;28;20348;-81
2023/09/09 02:04:47;;;;;;;10.18;7.32;;;;;;;-143.21;74.12;71990.88;5070992;28;20233;-80
2023/09/09 02:07:14;;;;;;;10.65;6.72;;;;;;;-143.21;73.95;71990.88;5071837;28;20198;-80
2023/09/09 02:09:41;;;;;;;13.27;7.43;;;;;;;-143.21;74.41;72002.78;5071243;28;20228;-81
2023/09/09 02:12:08;;;;;;;12.52;7.03;;;;;;;-143.21;74.46;71996.81;5071057;28;20553;-80
2023/09/09 02:14:54;;;;;;;12.15;7.10;;;;;;;-143.21;74.83;72014.69;5070960;28;20216;-81
2023/09/09 02:17:21;;;;;;;12.45;6.60;;;;;;;-143.21;75.39;72004.75;5071189;28;20205;-80
2023/09/09 02:19:54;;;;;;;16.52;6.80;;;;;;;-143.21;75.07;71992.88;5070758;28;20212;-81
2023/09/09 02:22:21;;;;;;;10.98;7.18;;;;;;;-143.21;74.78;71992.88;5071118;28;20299;-79
2023/09/09 02:24:48;;;;;;;11.77;6.78;;;;;;;-143.21;74.25;71990.88;5070719;28;20205;-80
2023/09/09 02:27:15;;;;;;;11.25;7.45;;;;;;;-143.21;74.25;71994.84;5070927;28;20244;-79
2023/09/09 02:29:42;;;;;;;13.85;7.38;;;;;;;-143.21;74.70;72002.78;5070462;28;20206;-79
2023/09/09 02:32:10;;;;;;;11.20;7.30;;;;;;;-143.21;74.80;72004.75;5070369;28;20206;-78
2023/09/09 02:34:37;;;;;;;11.57;7.38;;;;;;;-143.21;75.15;72010.72;5071135;28;20575;-82
2023/09/09 02:37:16;;;;;;;13.30;7.70;;;;;;;-143.21;75.06;72010.72;5071670;28;20202;-82
2023/09/09 02:40:05;;;;;;;12.30;7.55;;;;;;;-143.21;75.13;72016.66;5068278;28;20259;-82
2023/09/09 02:42:38;;;;;;;15.70;7.95;;;;;;;-143.21;75.17;72020.63;5069274;28;20197;-80
2023/09/09 02:45:14;;;;;;;10.65;7.97;;;;;;;-143.21;75.33;72024.59;5068476;28;20201;-80
2023/09/09 02:50:58;;;;;;;16.17;7.93;;;;;;;-143.21;75.52;72034.50;5037042;28;20267;-81
2023/09/09 02:53:49;;;;;;;14.35;7.65;;;;;;;-143.21;75.46;72036.50;5068841;28;20205;-82
2023/09/09 02:56:18;;;;;;;15.32;7.40;;;;;;;-143.21;75.96;72050.38;5068820;28;20216;-81
2023/09/09 02:58:54;;;;;;;10.50;6.60;;;;;;;-143.21;75.57;72040.44;5068400;28;20219;-80
2023/09/09 03:01:31;;;;;;;10.60;6.70;;;;;;;-143.21;75.28;72040.44;5069150;28;20205;-79
2023/09/09 03:04:05;;;;;;;11.82;6.47;;;;;;;-143.21;74.97;72040.44;5068305;28;20225;-81
2023/09/09 03:06:32;;;;;;;10.45;6.93;;;;;;;-143.21;74.76;72046.41;5065862;28;20284;-80
2023/09/09 03:09:03;;;;;;;12.15;6.40;;;;;;;-143.21;75.06;72048.38;5069081;28;20212;-82
2023/09/09 03:11:32;;;;;;;11.50;6.78;;;;;;;-143.21;75.41;72064.25;5066059;28;20208;-82
2023/09/09 03:14:02;;;;;;;10.88;7.45;;;;;;;-143.21;75.77;72080.13;5069344;28;20208;-83
2023/09/09 03:16:32;;;;;;;14.63;8.25;;;;;;;-143.21;76.06;72086.06;5067910;28;20249;-83
2023/09/09 03:19:15;;;;;;;14.23;8.18;;;;;;;-143.21;75.99;72094.00;5068963;28;20251;-83
2023/09/09 03:21:45;;;;;;;15.70;9.48;;;;;;;-143.21;76.09;72099.94;5067474;28;20193;-82
2023/09/09 03:24:14;;;;;;;17.27;9.65;;;;;;;-143.21;75.98;72097.97;5068395;28;20228;-82
2023/09/09 03:26:41;;;;;;;23.98;10.85;;;;;;;-143.21;76.11;72097.97;5067704;28;20198;-83
2023/09/09 03:29:08;;;;;;;19.42;9.88;;;;;;;-143.21;75.85;72097.97;5068085;28;20209;-82
2023/09/09 03:31:35;;;;;;;14.65;9.45;;;;;;;-143.21;75.96;72109.84;5068043;28;20205;-82
2023/09/09 03:34:02;;;;;;;14.20;9.52;;;;;;;-143.21;75.83;72113.81;5068399;28;20203;-80
2023/09/09 03:36:30;;;;;;;17.42;9.85;;;;;;;-143.21;75.96;72115.81;5068407;28;20201;-82
2023/09/09 03:39:01;;;;;;;14.30;9.40;;;;;;;-143.21;76.16;72133.66;5068868;28;20597;-81
2023/09/09 03:41:28;;;;;;;28.23;15.98;;;;;;;-143.21;76.53;72129.69;5069480;28;20197;-82
2023/09/09 03:43:57;;;;;;;16.35;9.38;;;;;;;-143.21;76.37;72131.69;5068108;28;20681;-80
2023/09/09 03:46:24;;;;;;;14.70;9.93;;;;;;;-143.21;76.33;72131.69;5068234;28;20619;-81
2023/09/09 03:48:54;;;;;;;15.07;10.15;;;;;;;-143.21;76.33;72137.63;5068027;28;20216;-82
2023/09/09 03:51:24;;;;;;;21.48;13.48;;;;;;;-143.21;76.25;72141.59;5067546;28;20223;-82
2023/09/09 03:53:52;;;;;;;22.17;13.57;;;;;;;-143.21;76.12;72149.53;5067972;28;20224;-82
2023/09/09 03:56:24;;;;;;;22.27;14.93;;;;;;;-143.21;76.09;72159.44;5067396;28;20213;-81
2023/09/09 03:58:50;;;;;;;21.52;14.57;;;;;;;-143.21;75.97;72167.38;5067642;28;20221;-81
2023/09/09 04:01:18;;;;;;;23.75;16.08;;;;;;;-143.21;75.96;72175.31;5067951;28;20209;-81
2023/09/09 04:03:44;;;;;;;25.15;15.50;;;;;;;-143.21;76.21;72185.22;5067378;28;20282;-80
2023/09/09 04:06:39;;;;;;;27.75;15.32;;;;;;;-143.21;76.57;72193.16;5067226;28;20233;-81
2023/09/09 04:09:07;;;;;;;24.52;15.48;;;;;;;-143.21;76.90;72199.09;5067399;28;20193;-80
2023/09/09 04:11:39;;;;;;;30.77;14.98;;;;;;;-143.21;77.14;72207.03;5067364;28;20201;-79
2023/09/09 04:14:08;;;;;;;24.70;13.63;;;;;;;-143.21;76.77;72197.13;5064340;28;20205;-80
2023/09/09 04:16:35;;;;;;;26.05;13.98;;;;;;;-143.21;76.90;72205.03;5066363;28;20205;-81
2023/09/09 04:19:01;;;;;;;24.70;14.90;;;;;;;-143.21;77.21;72207.03;5068169;28;20891;-79
2023/09/09 04:21:34;;;;;;;26.52;14.60;;;;;;;-143.21;77.21;72209.00;5064981;28;20201;-82
2023/09/09 04:24:03;;;;;;;25.63;15.23;;;;;;;-143.21;77.38;72216.94;5064741;28;20225;-81
2023/09/09 04:26:39;;;;;;;27.83;15.23;;;;;;;-143.21;77.47;72212.97;5064870;28;20213;-82
2023/09/09 04:29:15;;;;;;;30.35;17.52;;;;;;;-143.21;77.24;72209.00;5065198;28;20192;-81
2023/09/09 04:31:46;;;;;;;34.60;19.42;;;;;;;-143.21;76.77;72195.13;5066976;28;20217;-81
2023/09/09 04:34:17;;;;;;;38.33;23.00;;;;;;;-143.21;77.02;72199.09;5067803;28;20201;-81
2023/09/09 04:36:45;;;;;;;24.50;18.07;;;;;;;-143.21;77.53;72218.94;5067903;28;20205;-81
2023/09/09 04:39:15;;;;;;;29.77;19.27;;;;;;;-143.21;77.90;72226.84;5067390;28;20211;-82
2023/09/09 04:41:52;;;;;;;34.50;19.50;;;;;;;-143.21;77.92;72222.91;5067508;28;20204;-81
2023/09/09 04:44:19;;;;;;;32.60;19.38;;;;;;;-143.21;77.86;72220.91;5067146;28;20523;-81
2023/09/09 04:46:46;;;;;;;27.13;17.60;;;;;;;-143.21;78.12;72220.91;5066608;28;20664;-80
2023/09/09 04:49:22;;;;;;;28.67;17.48;;;;;;;-143.21;78.20;72226.84;5066379;28;20278;-80
2023/09/09 04:51:49;;;;;;;31.30;17.93;;;;;;;-143.21;78.24;72220.91;5066699;28;20755;-80
2023/09/09 04:54:18;;;;;;;23.23;17.08;;;;;;;-143.21;77.87;72214.97;5066679;28;20256;-81
2023/09/09 04:56:46;;;;;;;23.10;15.93;;;;;;;-143.21;78.21;72212.97;5066335;28;20205;-80
2023/09/09 04:59:17;;;;;;;22.13;14.68;;;;;;;-143.21;77.93;72207.03;5066938;28;20198;-81
2023/09/09 05:01:46;;;;;;;19.33;12.38;;;;;;;-143.21;77.76;72211.00;5066577;28;20201;-80
2023/09/09 05:04:12;;;;;;;22.35;13.73;;;;;;;-143.21;77.98;72199.09;5067097;28;20244;-80
2023/09/09 05:06:39;;;;;;;19.23;11.93;;;;;;;-143.21;77.94;72209.00;5066664;28;20212;-80
2023/09/09 05:09:06;;;;;;;20.10;11.52;;;;;;;-143.21;77.82;72209.00;5067437;28;20205;-80
2023/09/09 05:11:33;;;;;;;13.93;10.25;;;;;;;-143.21;77.56;72205.03;5067519;28;20206;-80
2023/09/09 05:13:59;;;;;;;16.10;11.32;;;;;;;-143.21;77.56;72201.09;5067135;28;20205;-81
2023/09/09 05:16:28;;;;;;;13.95;10.88;;;;;;;-143.21;77.42;72199.09;5066519;28;20213;-81
2023/09/09 05:18:55;;;;;;;16.00;10.10;;;;;;;-143.21;77.19;72189.19;5066988;28;20272;-79
2023/09/09 05:21:24;;;;;;;15.07;9.55;;;;;;;-143.21;76.77;72187.19;5067423;28;20213;-80
2023/09/09 05:23:53;;;;;;;15.63;10.02;;;;;;;-143.21;76.75;72187.19;5066760;28;20294;-79
2023/09/09 05:29:12;;;;;;;13.25;9.63;;;;;;;-143.21;77.08;72181.25;5064454;28;20216;-82
2023/09/09 05:31:58;;;;;;;13.43;9.88;;;;;;;-143.21;77.17;72171.34;5067243;28;20201;-81
2023/09/09 05:34:24;;;;;;;17.52;9.82;;;;;;;-143.21;77.33;72179.25;5067201;28;20201;-81
2023/09/09 05:36:51;;;;;;;12.75;9.13;;;;;;;-143.21;76.90;72163.41;5065645;28;20835;-80
2023/09/09 05:39:21;;;;;;;17.55;10.52;;;;;;;-143.21;76.30;72149.53;5065916;28;20604;-81
2023/09/09 05:41:50;;;;;;;17.40;10.18;;;;;;;-143.21;76.64;72157.44;5066888;28;20274;-81
2023/09/09 05:44:17;;;;;;;18.80;10.45;;;;;;;-143.21;76.82;72161.41;5066773;28;20343;-80
2023/09/09 05:46:46;;;;;;;18.07;10.40;;;;;;;-143.21;77.19;72163.41;5066110;28;20645;-81
2023/09/09 05:49:14;;;;;;;18.00;10.45;;;;;;;-143.21;77.16;72161.41;5066601;28;20229;-81
2023/09/09 05:51:43;;;;;;;17.17;10.40;;;;;;;-143.21;77.35;72155.47;5066889;28;20209;-80
2023/09/09 05:54:09;;;;;;;17.13;10.27;;;;;;;-143.21;77.23;72157.44;5067231;28;20209;-82
2023/09/09 05:56:39;;;;;;;20.52;11.02;;;;;;;-143.21;77.29;72151.50;5066532;28;20573;-80
2023/09/09 05:59:08;;;;;;;17.20;10.63;;;;;;;-143.21;77.32;72151.50;5066522;28;20197;-81
2023/09/09 06:01:35;;;;;;;21.15;11.05;;;;;;;-143.21;77.31;72145.56;5066577;28;20202;-82
2023/09/09 06:04:02;;;;;;;20.35;10.85;;;;;;;-143.21;77.36;72143.56;5063004;28;20229;-80
2023/09/09 06:06:35;;;;;;;25.63;11.15;;;;;;;-143.21;77.02;72133.66;5067268;28;20296;-82
2023/09/09 06:09:13;;;;;;;;;;;;;;;;;;;;;
2023/09/09 06:11:43;;;;;;;23.15;10.50;;;;;;;-143.21;76.88;72125.72;5064263;28;20204;-80
2023/09/09 06:14:10;;;;;;;26.20;10.85;;;;;;;-143.21;76.72;72125.72;5066324;28;20194;-81
2023/09/09 06:16:37;;;;;;;18.02;10.90;;;;;;;-143.21;76.61;72121.75;5064278;28;20212;-80
2023/09/09 06:19:03;;;;;;;15.23;10.15;;;;;;;-143.21;76.08;72113.81;5067322;28;20205;-80
2023/09/09 06:21:35;;;;;;;25.45;10.43;;;;;;;-143.21;75.83;72113.81;5070051;28;20674;-79
2023/09/09 06:24:04;;;;;;;15.15;10.10;;;;;;;-143.21;75.96;72107.88;5066983;28;20590;-82
2023/09/09 06:26:34;;;;;;;16.92;10.38;;;;;;;-143.21;76.06;72107.88;5067184;28;20627;-80
2023/09/09 06:29:04;;;;;;;18.02;10.68;;;;;;;-143.21;75.90;72105.91;5066472;28;20205;-81
2023/09/09 06:31:34;;;;;;;16.42;10.38;;;;;;;-143.21;75.29;72074.16;5066792;28;20212;-81
2023/09/09 06:34:00;;;;;;;14.38;10.10;;;;;;;-143.21;74.65;72046.41;5066879;28;20221;-80
2023/09/09 06:36:27;;;;;;;19.95;10.80;;;;;;;-143.21;73.75;72036.50;5069884;28;20798;-81
2023/09/09 06:38:55;;;;;;;18.58;10.70;;;;;;;-143.21;73.68;72030.53;5068853;28;20245;-82
2023/09/09 06:41:22;;;;;;;19.80;11.35;;;;;;;-143.21;73.62;72022.59;5069880;28;20240;-81
2023/09/09 06:43:52;;;;;;;19.60;11.02;;;;;;;-143.21;73.28;72028.56;5068712;28;20216;-81
2023/09/09 06:46:19;;;;;;;18.55;10.23;;;;;;;-143.21;73.73;72034.50;5069707;28;20206;-82
2023/09/09 06:48:46;;;;;;;21.08;11.25;;;;;;;-143.21;73.49;72022.59;5068721;28;20205;-82
2023/09/09 06:51:19;;;;;;;23.35;10.70;;;;;;;-143.21;73.44;72030.53;5069490;28;20217;-81
2023/09/09 06:53:46;;;;;;;18.08;10.20;;;;;;;-143.21;73.62;72024.59;5070026;28;20286;-81
2023/09/09 06:56:17;;;;;;;21.63;11.75;;;;;;;-143.21;73.79;72022.59;5069294;28;20201;-82
2023/09/09 06:58:52;;;;;;;22.05;11.45;;;;;;;-143.21;73.58;72012.69;5070638;28;20235;-79
2023/09/09 07:01:19;;;;;;;21.42;10.80;;;;;;;-143.21;73.87;72012.69;5071287;28;20193;-80
2023/09/09 07:03:47;;;;;;;21.05;10.50;;;;;;;-143.21;73.94;72010.72;5070100;28;20974;-81
2023/09/09 07:06:16;;;;;;;17.55;10.63;;;;;;;-143.21;73.30;71992.88;5069742;28;20240;-82
2023/09/09 07:08:49;;;;;;;15.27;11.05;;;;;;;-143.21;73.09;71990.88;5071284;28;20664;-81
2023/09/09 07:11:17;;;;;;;16.65;11.13;;;;;;;-143.21;72.83;71978.97;5069949;28;20241;-81
2023/09/09 07:13:53;;;;;;;18.65;10.75;;;;;;;-143.21;72.70;71965.09;5054013;28;20213;-81
2023/09/09 07:16:23;;;;;;;18.05;10.73;;;;;;;-143.21;71.74;71931.38;5068005;28;20212;-81
2023/09/09 07:19:02;;;;;;;19.20;10.65;;;;;;;-143.21;70.81;71917.50;5068959;28;20208;-80
2023/09/09 07:21:29;;;;;;;22.10;10.52;;;;;;;-143.21;70.34;71913.53;5069432;28;20598;-81
2023/09/09 07:23:56;;;;;;;22.80;10.95;;;;;;;-143.21;70.16;71901.66;5070246;28;20247;-82
2023/09/09 07:26:25;;;;;;;17.52;10.80;;;;;;;-143.21;69.91;71911.56;5070223;28;20201;-80
2023/09/09 07:28:52;;;;;;;16.30;10.10;;;;;;;-143.21;69.63;71899.66;5070133;28;20227;-80
2023/09/09 07:31:19;;;;;;;16.88;9.20;;;;;;;-143.21;69.32;71899.66;5069041;28;21165;-81
2023/09/09 07:33:56;;;;;;;19.98;10.07;;;;;;;-143.21;68.07;71883.81;5069841;28;20202;-81
2023/09/09 07:36:25;;;;;;;21.15;8.13;;;;;;;-143.21;65.58;71881.81;5069238;28;20220;-80
2023/09/09 07:38:53;;;;;;;11.10;6.93;;;;;;;-143.21;63.89;71873.88;5069870;28;20213;-82
2023/09/09 07:41:25;;;;;;;14.80;7.10;;;;;;;-143.21;62.78;71863.97;5068834;28;20212;-81
2023/09/09 07:43:52;;;;;;;16.08;6.70;;;;;;;-143.21;62.03;71858.03;5068839;28;20201;-80
2023/09/09 07:46:19;;;;;;;10.63;6.10;;;;;;;-143.21;60.27;71842.16;5068881;28;21216;-80
2023/09/09 07:48:46;;;;;;;10.85;5.10;;;;;;;-143.21;56.93;71794.56;5068244;28;20201;-81
2023/09/09 07:51:14;;;;;;;11.40;5.75;;;;;;;-143.21;56.34;71770.78;5067231;28;20201;-80
2023/09/09 07:53:41;;;;;;;11.18;5.85;;;;;;;-143.21;56.41;71754.91;5068223;28;20197;-80
2023/09/09 07:56:08;;;;;;;15.10;6.88;;;;;;;-143.21;56.30;71743.00;5067527;28;20656;-81
2023/09/09 07:58:36;;;;;;;13.48;6.10;;;;;;;-143.21;56.03;71748.97;5067487;28;20205;-80
2023/09/09 08:01:05;;;;;;;10.13;5.95;;;;;;;-143.21;54.19;71741.03;5067853;28;20200;-81
2023/09/09 08:03:32;;;;;;;9.65;4.75;;;;;;;-143.21;53.53;71748.97;5064827;28;20201;-81
2023/09/09 08:06:02;;;;;;;7.35;4.10;;;;;;;-143.21;52.09;71743.00;5067778;28;20711;-80
2023/09/09 08:08:29;;;;;;;6.03;3.97;;;;;;;-143.21;51.10;71745.00;5068382;28;20258;-80
2023/09/09 08:10:59;;;;;;;10.18;4.50;;;;;;;-143.21;49.73;71725.16;5067940;28;20209;-81
2023/09/09 08:13:29;;;;;;;9.70;4.10;;;;;;;-143.21;49.97;71717.25;5067794;28;20209;-79
2023/09/09 08:15:59;;;;;;;6.95;4.10;;;;;;;-143.21;49.89;71705.34;5065609;28;20209;-78
2023/09/09 08:18:26;;;;;;;4.55;3.53;;;;;;;-143.21;54.85;71683.53;5066149;28;20213;-77
2023/09/09 08:20:53;;;;;;;12.63;3.90;;;;;;;-143.21;54.64;71673.63;5066053;28;20213;-77
2023/09/09 08:23:22;;;;;;;6.97;4.18;;;;;;;-143.21;52.17;71645.88;5065791;28;20691;-77
2023/09/09 08:25:48;;;;;;;7.93;4.00;;;;;;;-143.21;49.99;71626.03;5066792;28;20599;-77
2023/09/09 08:28:15;;;;;;;4.78;3.50;;;;;;;-143.21;53.21;71586.38;5066359;28;20209;-77
2023/09/09 08:30:42;;;;;;;10.52;3.95;;;;;;;-143.21;48.47;71562.59;5066705;28;20221;-77
2023/09/09 08:33:11;;;;;;;8.05;4.68;;;;;;;-143.21;46.63;71556.63;5067807;28;20288;-81
2023/09/09 08:35:37;;;;;;;7.82;4.20;;;;;;;-143.21;46.24;71546.72;5067359;28;20338;-81
2023/09/09 08:38:04;;;;;;;8.20;4.15;;;;;;;-143.21;45.07;71530.88;5067411;28;20209;-81
2023/09/09 08:40:35;;;;;;;4.55;3.63;;;;;;;-143.21;45.11;71530.88;5068120;28;20209;-82
2023/09/09 08:43:09;;;;;;;5.13;3.78;;;;;;;-143.21;45.26;71532.84;5064091;28;20205;-82
2023/09/09 08:45:44;;;;;;;15.38;4.13;;;;;;;-143.21;44.80;71528.88;5066048;28;20254;-86
2023/09/09 08:48:20;;;;;;;5.53;3.60;;;;;;;-143.21;44.52;71513.03;5067848;28;20208;-85
2023/09/09 08:50:50;;;;;;;8.95;3.90;;;;;;;-143.21;44.43;71503.09;5068619;28;20197;-90
2023/09/09 08:53:18;;;;;;;8.13;4.32;;;;;;;-143.21;44.28;71485.25;5068885;28;20216;-92
2023/09/09 08:55:46;;;;;;;6.30;3.30;;;;;;;-143.21;43.14;71479.31;5069414;28;20288;-91
2023/09/09 08:58:14;;;;;;;5.63;3.20;;;;;;;-143.21;42.11;71473.38;5068435;28;20219;-91
2023/09/09 09:00:40;;;;;;;7.28;3.47;;;;;;;-143.21;40.97;71457.50;5069112;28;20316;-90
2023/09/09 09:03:07;;;;;;;6.22;2.80;;;;;;;-143.21;41.24;71447.59;5068434;28;20209;-91
2023/09/09 09:05:36;;;;;;;4.30;3.10;;;;;;;-143.21;41.12;71427.75;5070033;28;20233;-91
2023/09/09 09:08:04;;;;;;;5.13;3.47;;;;;;;-143.21;40.69;71396.03;5069147;28;20719;-90
2023/09/09 09:10:31;;;;;;;9.40;3.45;;;;;;;-143.21;40.44;71378.19;5066833;28;20292;-91
2023/09/09 09:12:58;;;;;;;7.00;3.20;;;;;;;-143.21;39.89;71364.31;5066490;28;20208;-90
2023/09/09 09:15:25;;;;;;;4.45;3.35;;;;;;;-143.21;39.60;71350.44;5068877;28;20216;-91
2023/09/09 09:17:53;;;;;;;6.57;2.90;;;;;;;-143.21;38.75;71332.59;5069107;28;20988;-85
2023/09/09 09:20:27;;;;;;;4.75;3.30;;;;;;;-143.21;38.21;71306.81;5068868;28;20224;-86
2023/09/09 09:22:59;;;;;;;7.90;3.05;;;;;;;-143.21;37.69;71292.94;5068435;28;20616;-87
2023/09/09 09:25:27;;;;;;;4.15;3.25;;;;;;;-143.21;37.66;71275.09;5068111;28;20613;-87
2023/09/09 09:27:57;;;;;;;8.35;3.28;;;;;;;-143.21;37.34;71253.28;5067084;28;20642;-86
2023/09/09 09:30:25;;;;;;;4.78;3.05;;;;;;;-143.21;37.14;71229.50;5069180;28;20955;-88
2023/09/09 09:32:53;;;;;;;8.65;3.38;;;;;;;-143.21;36.53;71201.75;5069317;28;20206;-86
2023/09/09 09:35:24;;;;;;;5.75;2.92;;;;;;;-143.21;35.54;71185.88;5071401;28;20223;-87
2023/09/09 09:37:53;;;;;;;4.55;3.08;;;;;;;-143.21;35.84;71158.13;5066916;28;20577;-86
2023/09/09 09:40:28;;;;;;;4.03;3.28;;;;;;;-143.21;34.53;71146.25;5069127;28;20189;-86
2023/09/09 09:42:56;;;;;;;5.13;2.97;;;;;;;-143.21;35.22;71124.44;5070347;28;20193;-85
2023/09/09 09:45:26;;;;;;;5.82;2.97;;;;;;;-143.21;33.90;71098.66;5069736;28;20250;-87
2023/09/09 09:47:54;;;;;;;4.68;3.00;;;;;;;-143.21;33.97;71070.91;5069824;28;20200;-85
2023/09/09 09:50:28;;;;;;;4.93;3.30;;;;;;;-143.21;33.85;71047.13;5069036;28;20209;-84
2023/09/09 09:53:02;;;;;;;10.35;3.17;;;;;;;-143.21;33.53;71011.44;5069384;28;20628;-88
2023/09/09 09:55:35;;;;;;;5.78;3.38;;;;;;;-143.21;32.82;70997.56;5074564;28;20609;-87
2023/09/09 09:58:08;;;;;;;3.40;2.90;;;;;;;-143.21;32.89;70959.91;5078788;28;20208;-86
2023/09/09 10:00:35;;;;;;;4.10;3.20;;;;;;;-143.21;32.43;70922.22;5076069;28;20185;-88
2023/09/09 10:03:03;;;;;;;4.22;2.95;;;;;;;-143.21;31.96;70896.47;5076678;28;20201;-86
2023/09/09 10:05:30;;;;;;;6.55;3.20;;;;;;;-143.21;32.02;70886.53;5073570;28;20645;-86
2023/09/09 10:08:08;;;;;;;3.38;2.90;;;;;;;-143.21;31.36;70862.75;5070297;28;20209;-85
2023/09/09 10:10:40;;;;;;;7.40;2.88;;;;;;;-143.21;30.87;70860.78;5070181;28;20247;-86
2023/09/09 10:13:12;;;;;;;4.60;3.00;;;;;;;-143.21;30.90;70825.09;5071210;28;20205;-83
2023/09/09 10:15:41;;;;;;;4.40;2.50;;;;;;;-143.21;30.46;70803.28;5067801;28;20209;-85
2023/09/09 10:18:08;;;;;;;5.00;3.00;;;;;;;-143.21;29.90;70773.56;5073334;28;20210;-92
2023/09/09 10:20:40;;;;;;;7.47;2.72;;;;;;;-143.21;29.16;70801.31;5072130;28;20213;-89
2023/09/09 10:23:10;;;;;;;3.78;2.67;;;;;;;-143.21;29.49;70783.47;5077975;28;20209;-88
2023/09/09 10:25:42;;;;;;;5.22;2.83;;;;;;;-143.21;30.75;70827.06;5072459;28;20257;-91
2023/09/09 10:28:11;;;;;;;4.60;2.50;;;;;;;-143.21;30.41;70811.22;5074904;28;20826;-91
2023/09/09 10:30:38;;;;;;;6.13;3.35;;;;;;;-143.21;29.79;70821.13;5073976;28;20231;-91
2023/09/09 10:33:07;;;;;;;3.95;2.80;;;;;;;-143.21;29.29;70789.41;5077955;28;20210;-96
2023/09/09 10:35:37;;;;;;;5.30;3.10;;;;;;;-143.21;29.30;70761.66;5076310;28;20197;-89
2023/09/09 10:38:05;;;;;;;3.40;2.40;;;;;;;-143.21;28.65;70737.88;5077182;28;20212;-93
2023/09/09 10:40:35;;;;;;;5.20;2.78;;;;;;;-143.21;28.61;70704.19;5076947;28;20664;-92
2023/09/09 10:43:06;;;;;;;5.97;2.58;;;;;;;-143.21;28.75;70688.31;5073859;28;20304;-90
2023/09/09 10:45:47;;;;;;;4.57;2.60;;;;;;;-143.21;27.92;70686.34;5075509;28;20319;-92
2023/09/09 10:48:20;;;;;;;5.55;2.70;;;;;;;-143.21;28.31;70658.59;5070865;28;20197;-90
2023/09/09 10:50:49;;;;;;;4.35;2.85;;;;;;;-143.21;27.38;70634.81;5073394;28;20197;-87
2023/09/09 10:53:19;;;;;;;6.18;2.50;;;;;;;-143.21;27.13;70642.72;5071829;28;20236;-86
2023/09/09 10:55:48;;;;;;;5.53;2.30;;;;;;;-143.21;26.97;70656.59;5068853;28;20293;-87
2023/09/09 10:58:32;;;;;;;3.40;2.70;;;;;;;-143.21;27.53;70658.59;5071730;28;20290;-88
2023/09/09 11:00:59;;;;;;;3.58;2.72;;;;;;;-143.21;27.44;70626.88;5072132;28;20643;-89
2023/09/09 11:03:36;;;;;;;3.92;2.63;;;;;;;-143.21;26.48;70593.19;5075406;28;20193;-88
2023/09/09 11:06:07;;;;;;;3.20;2.53;;;;;;;-143.21;26.26;70571.38;5073519;28;20237;-89
2023/09/09 11:08:39;;;;;;;3.70;2.20;;;;;;;-143.21;25.98;70599.13;5073400;28;20240;-88
2023/09/09 11:11:12;;;;;;;5.72;2.72;;;;;;;-143.21;26.55;70569.38;5075924;28;20201;-89
2023/09/09 11:13:45;;;;;;;3.78;2.38;;;;;;;-143.21;26.41;70577.31;5077562;28;20205;-95
2023/09/09 11:16:30;;;;;;;6.38;2.53;;;;;;;-143.21;25.92;70547.59;5075657;28;20205;-88
2023/09/09 11:18:59;;;;;;;5.05;2.63;;;;;;;-143.21;25.79;70511.91;5076989;28;20209;-90
2023/09/09 11:21:27;;;;;;;7.57;2.42;;;;;;;-143.21;26.05;70480.19;5074361;28;20205;-83
2023/09/09 11:23:54;;;;;;;4.90;2.70;;;;;;;-143.21;25.14;70448.47;5069412;28;20282;-83
2023/09/09 11:26:23;;;;;;;3.95;2.38;;;;;;;-143.21;25.44;70454.44;5071220;28;20229;-83
2023/09/09 11:28:53;;;;;;;5.50;2.28;;;;;;;-143.21;25.30;70462.34;5071384;28;20267;-83